Time;durP1;ratioP1;P1;durP2;ratioP2;P2;SDS_P1;SDS_P2;PMS_P1;PMS_P2;Temp;Humidity;BMP_temperature;BMP_pressure;BME280_temperature;BME280_humidity;BME280_pressure;Samples;Min_cycle;Max_cycle;Signal;HPM_P1;HPM_P2
2022/06/03 00:01:54;;;;;;;1.60;1.50;;;21.40;48.30;;;-142.21;52.78;112049.66;5112068;28;20295;-71
2022/06/03 00:04:53;;;;;;;2.83;1.60;;;21.30;48.40;;;-142.21;52.56;112049.66;5114957;28;20523;-71
2022/06/03 00:07:38;;;;;;;1.50;1.40;;;21.30;48.20;;;-142.21;52.76;112049.66;5114953;28;20257;-72
2022/06/03 00:10:31;;;;;;;2.17;1.50;;;21.30;48.20;;;-142.21;53.02;112049.66;5114529;28;20231;-72
2022/06/03 00:13:16;;;;;;;1.63;1.53;;;21.30;48.40;;;-142.21;52.97;112049.66;5106891;28;20220;-72
2022/06/03 00:16:04;;;;;;;1.53;1.43;;;21.30;48.20;;;-142.21;53.25;112049.66;5112675;28;20196;-72
2022/06/03 00:19:11;;;;;;;1.70;1.60;;;21.30;48.40;;;-142.21;53.31;112049.66;5114474;28;20196;-72
2022/06/03 00:22:05;;;;;;;1.57;1.47;;;21.30;48.50;;;-142.21;54.08;112049.66;5112110;28;20192;-72
2022/06/03 00:25:03;;;;;;;1.80;1.60;;;21.30;48.80;;;-142.21;54.58;112049.66;5100773;28;20640;-72
2022/06/03 00:28:02;;;;;;;1.77;1.67;;;21.20;48.90;;;-142.21;55.35;112049.66;5114019;28;20603;-72
2022/06/03 00:30:53;;;;;;;1.47;1.37;;;21.10;49.10;;;-142.21;55.78;112049.66;5114413;28;20279;-72
2022/06/03 00:34:16;;;;;;;1.50;1.40;;;21.10;49.20;;;-142.21;56.55;112049.66;5113778;28;20196;-72
2022/06/03 00:37:03;;;;;;;1.80;1.70;;;21.00;49.50;;;-142.21;56.64;112049.66;5104482;28;20200;-72
2022/06/03 00:39:54;;;;;;;2.30;1.60;;;21.00;49.30;;;-142.21;57.00;112049.66;5113726;28;20291;-72
2022/06/03 00:43:08;;;;;;;3.50;1.80;;;20.90;49.40;;;-142.21;57.24;112049.66;5112781;28;20204;-72
2022/06/03 00:46:05;;;;;;;2.70;1.53;;;20.90;49.60;;;-142.21;57.84;112049.66;5085628;28;20200;-72
2022/06/03 00:49:02;;;;;;;1.97;1.60;;;20.90;49.70;;;-142.21;58.26;112049.66;5114129;28;20283;-72
2022/06/03 00:52:09;;;;;;;1.87;1.67;;;20.80;49.80;;;-142.21;58.02;112049.66;5113423;28;20279;-72
2022/06/03 00:55:10;;;;;;;1.90;1.60;;;20.80;49.80;;;-142.21;58.17;112049.66;5113344;28;20202;-72
2022/06/03 00:58:34;;;;;;;3.23;1.53;;;20.80;49.70;;;-142.21;58.61;112049.66;5103483;28;20299;-72
2022/06/03 01:01:13;;;;;;;1.70;1.60;;;20.70;50.10;;;-142.21;59.43;112049.66;5029931;28;20469;-72
2022/06/03 01:04:16;;;;;;;1.87;1.40;;;20.70;50.00;;;-142.21;59.39;112049.66;5112674;28;20210;-72
2022/06/03 01:07:03;;;;;;;1.33;1.23;;;20.70;50.20;;;-142.21;59.52;112049.66;5112422;28;20558;-71
2022/06/03 01:09:53;;;;;;;1.50;1.40;;;20.60;49.90;;;-142.21;60.39;112049.66;5113602;28;20231;-71
2022/06/03 01:12:55;;;;;;;1.80;1.70;;;20.60;50.00;;;-142.21;60.39;112049.66;5109385;28;20267;-72
2022/06/03 01:15:37;;;;;;;1.87;1.43;;;20.60;50.10;;;-142.21;60.38;112049.66;5113046;28;20929;-72
2022/06/03 01:18:25;;;;;;;1.60;1.50;;;20.50;50.10;;;-142.21;60.54;112049.66;5113581;28;20215;-71
2022/06/03 01:21:18;;;;;;;2.67;1.70;;;20.50;50.20;;;-142.21;60.25;112049.66;5111075;28;20274;-72
2022/06/03 01:24:54;;;;;;;2.03;1.67;;;20.50;50.40;;;-142.21;61.49;112049.66;5112477;28;20214;-72
2022/06/03 01:28:18;;;;;;;1.80;1.70;;;20.40;50.60;;;-142.21;61.67;112049.66;5101500;28;20203;-71
2022/06/03 01:31:19;;;;;;;1.70;1.60;;;20.40;50.50;;;-142.21;61.62;112049.66;5112287;28;20443;-71
2022/06/03 01:34:11;;;;;;;1.73;1.63;;;20.40;50.50;;;-142.21;62.10;112049.66;5103425;28;20191;-71
2022/06/03 01:36:59;;;;;;;1.70;1.60;;;20.40;50.60;;;-142.21;62.25;112049.66;5112588;28;20192;-71
2022/06/03 01:40:00;;;;;;;1.67;1.57;;;20.30;50.60;;;-142.21;63.65;112049.66;5110033;28;20457;-71
2022/06/03 01:43:00;;;;;;;1.50;1.40;;;20.30;51.10;;;-142.21;63.99;112049.66;5112680;28;20245;-73
2022/06/03 01:46:07;;;;;;;1.97;1.70;;;20.30;50.90;;;-142.21;64.56;112049.66;5112997;28;20223;-72
2022/06/03 01:49:20;;;;;;;2.37;1.47;;;20.20;51.20;;;-142.21;65.42;112049.66;5113169;28;20537;-72
2022/06/03 01:52:35;;;;;;;2.10;1.90;;;20.20;51.50;;;-142.21;65.82;112049.66;5100810;28;20215;-72
2022/06/03 01:55:55;;;;;;;1.83;1.73;;;20.10;51.40;;;-142.21;66.34;112049.66;5112016;28;20288;-72
2022/06/03 01:59:17;;;;;;;1.90;1.67;;;20.10;51.70;;;-142.21;67.05;112049.66;5098727;28;20228;-72
2022/06/03 02:03:00;;;;;;;1.60;1.50;;;20.00;52.00;;;-142.21;67.84;112049.66;5111613;28;20452;-72
2022/06/03 02:06:12;;;;;;;1.80;1.70;;;19.90;52.30;;;-142.21;67.48;112049.66;5025983;28;20743;-72
2022/06/03 02:09:29;;;;;;;1.70;1.40;;;19.80;52.10;;;-142.21;68.07;112049.66;5112248;28;20287;-72
2022/06/03 02:13:08;;;;;;;1.70;1.60;;;19.80;52.10;;;-142.21;67.95;112049.66;5073494;28;20520;-72
2022/06/03 02:16:17;;;;;;;3.47;1.63;;;19.70;52.10;;;-142.21;68.39;112049.66;5069255;28;20274;-72
2022/06/03 02:19:23;;;;;;;1.90;1.80;;;19.70;52.50;;;-142.21;69.07;112049.66;5068294;28;20467;-71
2022/06/03 02:22:47;;;;;;;1.70;1.60;;;19.60;52.50;;;-142.21;69.36;112049.66;5111030;28;20282;-72
2022/06/03 02:25:37;;;;;;;2.97;1.60;;;19.60;52.70;;;-142.21;69.28;112049.66;5112017;28;20465;-71
2022/06/03 02:28:26;;;;;;;1.70;1.50;;;19.60;52.50;;;-142.21;69.62;112049.66;5111585;28;20832;-71
2022/06/03 02:31:37;;;;;;;2.40;1.60;;;19.60;52.50;;;-142.21;69.62;112049.66;5111570;28;20516;-71
2022/06/03 02:34:50;;;;;;;2.10;1.83;;;19.60;52.70;;;-142.21;70.12;112049.66;5104698;28;20267;-71
2022/06/03 02:38:02;;;;;;;1.70;1.60;;;19.50;52.90;;;-142.21;70.89;112049.66;5098386;28;20473;-71
2022/06/03 02:41:22;;;;;;;2.23;1.87;;;19.50;53.00;;;-142.21;71.01;112049.66;5099920;28;20606;-71
2022/06/03 02:44:21;;;;;;;1.83;1.70;;;19.40;53.00;;;-142.21;71.13;112049.66;5111465;28;20473;-72
2022/06/03 02:48:01;;;;;;;1.70;1.60;;;19.40;52.80;;;-142.21;72.08;112049.66;5111436;28;20274;-72
2022/06/03 02:51:18;;;;;;;1.60;1.50;;;19.40;53.40;;;-142.21;72.81;112049.66;5024970;28;20440;-72
2022/06/03 02:54:25;;;;;;;1.83;1.70;;;19.40;54.00;;;-142.21;71.62;112049.66;5027840;28;20473;-72
2022/06/03 02:57:42;;;;;;;1.93;1.80;;;19.30;53.40;;;-142.21;72.33;112049.66;5111836;28;20538;-72
2022/06/03 03:00:20;;;;;;;1.80;1.70;;;19.30;53.30;;;-142.21;72.18;112049.66;5072739;28;20441;-72
2022/06/03 03:03:36;;;;;;;1.87;1.70;;;19.20;53.20;;;-142.21;72.41;112049.66;5110960;28;20552;-72
2022/06/03 03:06:40;;;;;;;3.97;1.70;;;19.20;53.20;;;-142.21;72.05;112049.66;5115930;28;20546;-72
2022/06/03 03:09:37;;;;;;;3.07;2.00;;;19.20;53.10;;;-142.21;71.81;112049.66;5115270;28;20485;-72
2022/06/03 03:13:12;;;;;;;2.07;1.97;;;19.20;53.10;;;-142.21;71.83;112049.66;5114916;28;20763;-72
2022/06/03 03:16:23;;;;;;;1.87;1.77;;;19.20;53.20;;;-142.21;72.44;112049.66;5052822;28;20518;-72
2022/06/03 03:19:34;;;;;;;7.50;2.07;;;19.20;53.40;;;-142.21;71.92;112049.66;5050664;28;20436;-72
2022/06/03 03:22:36;;;;;;;3.77;1.80;;;19.10;53.20;;;-142.21;72.85;112049.66;5114919;28;20446;-72
2022/06/03 03:25:35;;;;;;;4.17;2.03;;;19.10;53.30;;;-142.21;72.76;112049.66;5105440;28;20448;-72
2022/06/03 03:28:53;;;;;;;1.87;1.60;;;19.00;53.40;;;-142.21;74.21;112049.66;5114707;28;20440;-71
2022/06/03 03:32:01;;;;;;;2.53;2.23;;;19.00;54.10;;;-142.21;74.71;112049.66;5102845;28;21214;-71
2022/06/03 03:35:09;;;;;;;2.10;1.90;;;19.00;54.10;;;-142.21;74.15;112049.66;5114166;28;20477;-71
2022/06/03 03:38:31;;;;;;;2.13;1.90;;;19.00;53.90;;;-142.21;74.66;112049.66;5110147;28;20503;-72
2022/06/03 03:41:56;;;;;;;1.93;1.73;;;19.00;54.10;;;-142.21;74.38;112049.66;5114063;28;20445;-72
2022/06/03 03:44:55;;;;;;;1.70;1.60;;;19.00;54.00;;;-142.21;74.65;112049.66;5113754;28;20549;-72
2022/06/03 03:48:43;;;;;;;2.13;1.70;;;18.90;53.90;;;-142.21;74.75;112049.66;5115020;28;20461;-72
2022/06/03 03:51:47;;;;;;;2.40;1.90;;;18.90;54.10;;;-142.21;74.18;112049.66;4961283;28;20484;-72
2022/06/03 03:55:10;;;;;;;2.03;1.80;;;18.90;53.70;;;-142.21;73.85;112049.66;5028677;28;20449;-72
2022/06/03 03:58:40;;;;;;;2.13;1.73;;;18.80;53.70;;;-142.21;74.10;112049.66;5098194;28;20861;-72
2022/06/03 04:01:47;;;;;;;2.87;2.00;;;18.80;53.80;;;-142.21;73.96;112049.66;5036270;28;20489;-72
2022/06/03 04:05:06;;;;;;;2.03;1.80;;;18.80;54.20;;;-142.21;73.74;112049.66;5114324;28;20466;-72
2022/06/03 04:08:13;;;;;;;3.77;1.73;;;18.80;53.70;;;-142.21;74.11;112049.66;5114879;28;20441;-72
2022/06/03 04:11:21;;;;;;;4.00;2.00;;;18.80;53.70;;;-142.21;75.84;112049.66;5114799;28;20817;-72
2022/06/03 04:14:27;;;;;;;5.97;2.10;;;18.80;54.40;;;-142.21;76.69;112049.66;5111194;28;20535;-72
2022/06/03 04:17:34;;;;;;;2.07;1.83;;;18.70;54.50;;;-142.21;76.12;112049.66;5113154;28;20528;-72
2022/06/03 04:20:58;;;;;;;2.93;1.90;;;18.80;54.30;;;-142.21;75.83;112049.66;5114328;28;20465;-72
2022/06/03 04:24:23;;;;;;;2.57;1.83;;;18.80;54.80;;;-142.21;76.09;112049.66;5111506;28;20985;-72
2022/06/03 04:27:41;;;;;;;2.43;1.80;;;18.70;54.40;;;-142.21;76.80;112049.66;5111477;28;20840;-71
2022/06/03 04:31:13;;;;;;;2.53;1.87;;;18.80;54.50;;;-142.21;75.76;112049.66;5105695;28;20465;-71
2022/06/03 04:34:43;;;;;;;2.23;1.83;;;18.70;54.60;;;-142.21;76.57;112049.66;5100117;28;20444;-71
2022/06/03 04:38:05;;;;;;;3.97;2.27;;;18.80;54.80;;;-142.21;78.74;112049.66;5113919;28;20534;-72
2022/06/03 04:41:23;;;;;;;7.13;2.50;;;18.80;55.20;;;-142.21;80.05;112049.66;5103640;28;20984;-72
2022/06/03 04:44:50;;;;;;;7.10;2.70;;;18.70;55.60;;;-142.21;81.50;112049.66;5112785;28;20572;-72
2022/06/03 04:48:22;;;;;;;14.57;4.87;;;18.70;56.50;;;-142.21;83.71;112049.66;5088952;28;20469;-72
2022/06/03 04:51:52;;;;;;;12.93;4.20;;;18.70;57.30;;;-142.21;84.15;112049.66;5047272;28;20484;-72
2022/06/03 04:55:31;;;;;;;6.60;3.13;;;18.70;57.20;;;-142.21;83.42;112049.66;5113467;28;20430;-72
2022/06/03 04:59:16;;;;;;;7.97;3.17;;;18.80;57.60;;;-142.21;85.08;112049.66;5099912;28;20615;-72
2022/06/03 05:02:35;;;;;;;6.20;2.87;;;18.80;56.20;;;-142.21;82.08;112049.66;5044374;28;20958;-71
2022/06/03 05:05:54;;;;;;;2.30;1.73;;;18.90;56.60;;;-142.21;80.24;112049.66;5107796;28;20478;-71
2022/06/03 05:09:21;;;;;;;1.70;1.60;;;19.00;56.00;;;-142.21;78.17;112049.66;5107277;28;20460;-72
2022/06/03 05:12:45;;;;;;;4.73;1.80;;;19.10;55.40;;;-142.21;77.37;112049.66;5041038;28;20530;-72
2022/06/03 05:16:08;;;;;;;2.53;1.90;;;19.10;55.00;;;-142.21;77.04;112049.66;5095357;28;21035;-72
2022/06/03 05:19:23;;;;;;;1.70;1.60;;;19.20;54.80;;;-142.21;76.78;112049.66;5106493;28;20461;-72
2022/06/03 05:22:52;;;;;;;1.70;1.60;;;19.30;54.60;;;-142.21;73.88;112049.66;5112625;28;20541;-72
2022/06/03 05:25:58;;;;;;;2.10;2.00;;;19.40;53.90;;;-142.21;73.50;112049.66;5081197;28;20822;-72
2022/06/03 05:29:39;;;;;;;1.40;1.40;;;19.50;53.80;;;-142.21;71.76;112049.66;5111690;28;20437;-72
2022/06/03 05:33:10;;;;;;;1.90;1.70;;;19.60;53.20;;;-142.21;70.94;112049.66;5044700;28;20937;-72
2022/06/03 05:36:29;;;;;;;5.27;1.80;;;19.70;53.10;;;-142.21;72.53;112049.66;5110629;28;20229;-72
2022/06/03 05:39:45;;;;;;;1.57;1.40;;;19.90;53.40;;;-142.21;73.60;112049.66;5112563;28;20235;-72
2022/06/03 05:42:40;;;;;;;5.30;1.77;;;20.00;54.00;;;-142.21;73.25;112049.66;5069022;28;20472;-72
2022/06/03 05:45:54;;;;;;;2.53;1.60;;;20.10;53.50;;;-142.21;73.36;112049.66;5109098;28;20220;-72
2022/06/03 05:48:34;;;;;;;1.57;1.47;;;20.20;53.80;;;-142.21;72.32;112049.66;5106072;28;20227;-72
2022/06/03 05:51:13;;;;;;;1.93;1.73;;;20.30;53.50;;;-142.21;73.34;112049.66;5105813;28;20768;-72
2022/06/03 05:53:55;;;;;;;4.43;2.07;;;20.40;53.70;;;-142.21;70.71;112049.66;5103586;28;20735;-72
2022/06/03 05:56:52;;;;;;;1.83;1.73;;;20.50;53.00;;;-142.21;69.30;112049.66;5090909;28;20466;-71
2022/06/03 05:59:56;;;;;;;2.97;1.90;;;20.60;52.60;;;-142.21;70.83;112049.66;5089316;28;20451;-71
2022/06/03 06:02:33;;;;;;;2.20;2.00;;;20.70;53.20;;;-142.21;71.68;112049.66;5092915;28;20204;-70
2022/06/03 06:05:23;;;;;;;2.10;1.90;;;20.80;53.30;;;-142.21;71.43;112049.66;5111342;28;20219;-70
2022/06/03 06:08:22;;;;;;;3.43;2.33;;;20.90;53.20;;;-142.21;69.19;112049.66;5111474;28;20188;-70
2022/06/03 06:11:03;;;;;;;3.23;2.30;;;21.10;52.60;;;-142.21;71.31;112049.66;5110918;28;20661;-71
2022/06/03 06:14:15;;;;;;;2.37;1.90;;;21.20;53.10;;;-142.21;71.31;112049.66;5111650;28;20196;-71
2022/06/03 06:16:44;;;;;;;2.00;1.80;;;21.30;53.10;;;-142.21;69.98;112049.66;5109453;28;20204;-71
2022/06/03 06:19:36;;;;;;;1.83;1.73;;;21.40;52.60;;;-142.21;67.29;112049.66;5111017;28;20196;-71
2022/06/03 06:22:29;;;;;;;1.63;1.50;;;21.50;52.10;;;-142.21;67.70;112049.66;5105079;28;20204;-71
2022/06/03 06:25:07;;;;;;;2.97;2.00;;;21.60;52.10;;;-142.21;67.53;112049.66;5093437;28;20242;-71
2022/06/03 06:28:01;;;;;;;2.30;1.77;;;21.70;51.80;;;-142.21;66.28;112049.66;5111625;28;20287;-72
2022/06/03 06:30:54;;;;;;;2.13;1.70;;;21.80;51.60;;;-142.21;65.73;112049.66;5111618;28;20203;-71
2022/06/03 06:34:17;;;;;;;2.13;1.90;;;21.90;51.70;;;-142.21;65.17;112049.66;5110720;28;20195;-72
2022/06/03 06:37:36;;;;;;;1.73;1.63;;;22.00;51.50;;;-142.21;63.83;112049.66;5091364;28;20197;-72
2022/06/03 06:40:31;;;;;;;2.37;1.63;;;22.00;50.70;;;-142.21;65.02;112049.66;5098029;28;20587;-72
2022/06/03 06:43:11;;;;;;;2.00;1.80;;;22.10;50.80;;;-142.21;64.11;112049.66;5115158;28;20268;-72
2022/06/03 06:46:00;;;;;;;3.40;1.80;;;22.20;50.90;;;-142.21;62.18;112049.66;5116100;28;20207;-72
2022/06/03 06:48:45;;;;;;;1.73;1.63;;;22.30;50.60;;;-142.21;61.32;112049.66;5115507;28;20282;-72
2022/06/03 06:52:04;;;;;;;2.63;1.77;;;22.40;50.30;;;-142.21;59.11;112049.66;5114923;28;20231;-71
2022/06/03 06:54:50;;;;;;;1.73;1.63;;;22.40;49.60;;;-142.21;60.30;112049.66;5115152;28;20615;-71
2022/06/03 06:57:22;;;;;;;1.97;1.60;;;22.50;49.80;;;-142.21;60.49;112049.66;5114747;28;20252;-71
2022/06/03 06:59:58;;;;;;;5.07;1.80;;;22.60;50.00;;;-142.21;59.60;112049.66;5105324;28;20314;-72
2022/06/03 07:02:36;;;;;;;2.07;1.60;;;22.70;49.80;;;-142.21;59.13;112049.66;5115662;28;20651;-71
2022/06/03 07:05:11;;;;;;;2.30;2.10;;;22.80;49.50;;;-142.21;58.48;112049.66;5065372;28;20219;-71
2022/06/03 07:07:48;;;;;;;2.80;1.60;;;22.80;49.20;;;-142.21;57.30;112049.66;5113186;28;20199;-71
2022/06/03 07:10:26;;;;;;;2.17;1.53;;;22.90;49.00;;;-142.21;59.07;112049.66;5093868;28;20267;-71
2022/06/03 07:13:05;;;;;;;1.60;1.50;;;23.10;49.40;;;-142.21;58.98;112049.66;5113599;28;20187;-72
2022/06/03 07:15:54;;;;;;;1.63;1.53;;;23.10;49.50;;;-142.21;57.83;112049.66;5114721;28;20183;-72
2022/06/03 07:21:53;;;;;;;2.27;1.60;;;23.40;49.30;;;-142.21;57.05;112049.66;5114940;28;20252;-72
2022/06/03 07:24:38;;;;;;;2.53;1.60;;;23.50;48.90;;;-142.21;56.17;112049.66;5113905;28;20213;-71
2022/06/03 07:27:16;;;;;;;1.93;1.80;;;23.60;48.80;;;-142.21;55.99;112049.66;5114489;28;20229;-71
2022/06/03 07:29:51;;;;;;;1.60;1.50;;;23.70;48.60;;;-142.21;57.30;112049.66;5115160;28;20188;-71
2022/06/03 07:32:22;;;;;;;1.80;1.70;;;23.80;49.00;;;-142.21;56.91;112049.66;5114299;28;20284;-71
2022/06/03 07:35:01;;;;;;;1.73;1.60;;;23.80;48.80;;;-142.21;55.54;112049.66;5114337;28;20242;-71
2022/06/03 07:37:39;;;;;;;2.10;2.00;;;24.00;48.40;;;-142.21;55.60;112049.66;5114730;28;20642;-71
2022/06/03 07:40:16;;;;;;;1.83;1.70;;;24.10;48.10;;;-142.21;56.32;112049.66;5114682;28;20199;-71
2022/06/03 07:42:54;;;;;;;1.70;1.57;;;24.10;48.50;;;-142.21;55.82;112049.66;5114353;28;20236;-71
2022/06/03 07:45:43;;;;;;;2.63;1.70;;;24.30;48.40;;;-142.21;56.01;112049.66;5114132;28;20296;-71
2022/06/03 07:48:16;;;;;;;2.00;1.43;;;24.30;48.30;;;-142.21;56.22;112049.66;5112424;28;20251;-71
2022/06/03 07:50:52;;;;;;;2.23;2.03;;;24.40;48.40;;;-142.21;57.79;112049.66;5113770;28;20281;-71
2022/06/03 07:53:31;;;;;;;2.27;1.87;;;24.50;48.90;;;-142.21;55.40;112049.66;5113709;28;20216;-72
2022/06/03 07:55:59;;;;;;;1.97;1.77;;;24.70;48.40;;;-142.21;54.79;112049.66;5113921;28;20226;-72
2022/06/03 07:58:32;;;;;;;1.80;1.70;;;24.80;48.10;;;-142.21;54.64;112049.66;5113964;28;20211;-71
2022/06/03 08:01:00;;;;;;;1.83;1.70;;;24.80;48.00;;;-142.21;55.63;112049.66;5103324;28;20203;-72
2022/06/03 08:03:37;;;;;;;1.73;1.63;;;24.90;48.20;;;-142.21;56.15;112049.66;5114533;28;20214;-72
2022/06/03 08:06:08;;;;;;;2.80;1.70;;;24.90;48.30;;;-142.21;58.33;112049.66;5113512;28;20263;-72
2022/06/03 08:11:33;;;;;;;2.40;1.80;;;25.10;48.80;;;-142.21;57.10;112049.66;5114208;28;20329;-71
2022/06/03 08:14:02;;;;;;;2.57;2.03;;;25.30;48.80;;;-142.21;56.12;112049.66;5113940;28;20261;-71
2022/06/03 08:16:35;;;;;;;2.07;1.97;;;25.30;48.30;;;-142.21;56.41;112049.66;5113881;28;20251;-71
2022/06/03 08:19:10;;;;;;;2.97;2.10;;;25.40;48.50;;;-142.21;56.34;112049.66;5113421;28;20709;-71
2022/06/03 08:21:46;;;;;;;2.37;1.80;;;25.50;48.50;;;-142.21;57.31;112049.66;5113758;28;20199;-72
2022/06/03 08:24:18;;;;;;;1.90;1.80;;;25.50;48.50;;;-142.21;58.36;112049.66;5113216;28;20211;-72
2022/06/03 08:26:53;;;;;;;3.10;2.00;;;25.60;49.00;;;-142.21;56.29;112049.66;5114043;28;20298;-72
2022/06/03 08:29:34;;;;;;;2.23;1.83;;;25.70;48.60;;;-142.21;56.54;112049.66;5113592;28;20191;-71
2022/06/03 08:32:07;;;;;;;3.20;2.33;;;25.90;48.80;;;-142.21;58.87;112049.66;5113324;28;20283;-71
2022/06/03 08:34:39;;;;;;;2.07;1.73;;;25.90;49.20;;;-142.21;55.97;112049.66;5113594;28;20241;-71
2022/06/03 08:37:14;;;;;;;1.97;1.87;;;26.00;48.30;;;-142.21;57.80;112049.66;5112555;28;20619;-71
2022/06/03 08:39:44;;;;;;;2.10;1.90;;;26.10;48.70;;;-142.21;55.36;112049.66;5114258;28;20286;-72
2022/06/03 08:42:36;;;;;;;2.30;2.10;;;26.30;48.20;;;-142.21;54.63;112049.66;5113171;28;20249;-72
2022/06/03 08:45:35;;;;;;;2.77;2.27;;;26.40;47.80;;;-142.21;56.35;112049.66;5113435;28;20223;-72
2022/06/03 08:48:12;;;;;;;3.00;2.07;;;26.50;48.20;;;-142.21;57.20;112049.66;5112870;28;20192;-72
2022/06/03 08:50:46;;;;;;;2.73;2.53;;;26.60;48.60;;;-142.21;54.29;112049.66;5113573;27;20223;-72
2022/06/03 08:53:36;;;;;;;5.37;2.07;;;26.70;47.70;;;-142.21;55.98;112049.66;5112958;28;20617;-72
2022/06/03 08:56:09;;;;;;;2.20;2.00;;;26.80;48.20;;;-142.21;55.52;112049.66;5092684;28;20239;-71
2022/06/03 08:58:54;;;;;;;3.70;2.13;;;26.90;48.00;;;-142.21;55.34;112049.66;5108581;28;20206;-72
2022/06/03 09:01:35;;;;;;;2.20;2.00;;;26.90;48.20;;;-142.21;54.93;112049.66;5112772;28;20199;-71
2022/06/03 09:04:22;;;;;;;2.10;1.90;;;27.00;47.90;;;-142.21;54.95;112049.66;5112195;28;20631;-72
2022/06/03 09:07:02;;;;;;;3.63;2.30;;;27.10;47.80;;;-142.21;56.16;112049.66;5113315;28;20237;-71
2022/06/03 09:09:42;;;;;;;3.43;2.23;;;27.30;47.90;;;-142.21;56.43;112049.66;5092534;28;20232;-72
2022/06/03 09:12:22;;;;;;;3.43;2.60;;;27.40;48.00;;;-142.21;55.99;112049.66;5102300;28;20192;-70
2022/06/03 09:14:53;;;;;;;2.50;2.30;;;27.50;48.10;;;-142.21;55.14;112049.66;5112986;28;20274;-72
2022/06/03 09:17:42;;;;;;;2.50;2.30;;;27.60;47.60;;;-142.21;56.96;112049.66;5111576;28;20192;-72
2022/06/03 09:20:17;;;;;;;2.53;2.00;;;27.70;48.30;;;-142.21;56.99;112049.66;5111989;28;20189;-71
2022/06/03 09:22:47;;;;;;;2.37;2.17;;;27.90;48.40;;;-142.21;55.87;112049.66;5112633;28;20192;-71
2022/06/03 09:25:19;;;;;;;2.30;2.10;;;28.00;48.10;;;-142.21;54.90;112049.66;5111675;28;20220;-72
2022/06/03 09:27:51;;;;;;;4.83;2.30;;;28.00;47.50;;;-142.21;55.50;112049.66;5112475;28;20285;-72
2022/06/03 09:30:31;;;;;;;2.20;2.00;;;28.10;47.80;;;-142.21;55.27;112049.66;5111465;28;20192;-72
2022/06/03 09:33:02;;;;;;;2.70;2.40;;;28.10;47.80;;;-142.21;54.62;112049.66;5110941;28;20189;-71
2022/06/03 09:35:30;;;;;;;3.70;2.17;;;28.20;47.70;;;-142.21;53.24;112049.66;5105825;28;20195;-71
2022/06/03 09:38:02;;;;;;;2.93;2.20;;;28.20;47.30;;;-142.21;55.79;112049.66;5112537;27;20198;-71
2022/06/03 09:40:36;;;;;;;2.23;2.00;;;28.40;47.90;;;-142.21;56.18;112049.66;5112563;28;20248;-71
2022/06/03 09:43:14;;;;;;;3.10;2.80;;;28.50;48.00;;;-142.21;55.18;112049.66;5111863;28;20286;-71
2022/06/03 09:45:45;;;;;;;2.80;2.47;;;28.60;47.60;;;-142.21;53.35;112049.66;5112719;28;20212;-71
2022/06/03 09:48:15;;;;;;;3.50;2.50;;;28.80;47.20;;;-142.21;53.01;112049.66;5111350;28;20609;-72
2022/06/03 09:50:48;;;;;;;3.73;2.60;;;28.90;46.90;;;-142.21;53.57;112049.66;5112542;28;20571;-73
2022/06/03 09:53:21;;;;;;;2.73;2.53;;;29.10;47.10;;;-142.21;51.39;112049.66;5111747;28;20553;-71
2022/06/03 09:55:56;;;;;;;2.63;2.33;;;29.20;46.50;;;-142.21;50.41;112049.66;5111741;28;20196;-70
2022/06/03 09:58:30;;;;;;;2.63;2.43;;;29.40;46.20;;;-142.21;51.57;112049.66;5111767;28;20274;-71
2022/06/03 10:00:59;;;;;;;3.40;2.40;;;29.50;46.50;;;-142.21;50.69;112049.66;5111909;28;20280;-71
2022/06/03 10:03:28;;;;;;;4.30;2.47;;;29.50;46.10;;;-142.21;50.63;112049.66;5094717;28;20237;-71
2022/06/03 10:05:59;;;;;;;4.33;2.67;;;29.60;46.00;;;-142.21;48.77;112049.66;5112053;28;20225;-73
2022/06/03 10:12:48;;;;;;;3.10;2.50;;;29.60;45.30;;;-142.21;50.82;112049.66;5111392;28;20335;-72
2022/06/03 10:14:06;;;;;;;4.60;2.17;;;29.70;45.90;;;-142.21;50.33;112049.66;5070042;28;20212;-72
2022/06/03 10:16:34;;;;;;;4.03;2.60;;;29.80;45.70;;;-142.21;50.01;112049.66;5070978;28;20567;-72
2022/06/03 10:19:02;;;;;;;4.00;2.20;;;29.90;45.80;;;-142.21;49.51;112049.66;5071220;28;20298;-71
2022/06/03 10:21:34;;;;;;;2.87;2.43;;;29.90;45.60;;;-142.21;50.58;112049.66;5070699;28;20672;-72
2022/06/03 10:24:06;;;;;;;3.07;2.50;;;29.90;45.70;;;-142.21;50.12;112049.66;5070688;28;20291;-71
2022/06/03 10:26:48;;;;;;;3.33;2.30;;;30.00;45.70;;;-142.21;50.16;112049.66;5071401;28;20609;-72
2022/06/03 10:29:18;;;;;;;3.03;2.50;;;30.10;45.60;;;-142.21;51.08;112049.66;5070925;28;20196;-72
2022/06/03 10:31:54;;;;;;;3.20;2.50;;;30.10;46.00;;;-142.21;49.34;112049.66;5070988;28;20667;-71
2022/06/03 10:34:27;;;;;;;3.80;2.97;;;30.10;45.30;;;-142.21;48.82;112049.66;5070463;28;20665;-71
2022/06/03 10:36:57;;;;;;;3.87;2.33;;;30.10;45.20;;;-142.21;48.58;112049.66;5070866;28;20187;-71
2022/06/03 10:39:30;;;;;;;2.70;2.40;;;30.20;45.00;;;-142.21;51.29;112049.66;5070852;28;20333;-70
2022/06/03 10:42:00;;;;;;;2.80;2.60;;;30.20;45.80;;;-142.21;49.23;112049.66;5071323;28;20544;-72
2022/06/03 10:44:33;;;;;;;4.27;2.83;;;30.40;45.30;;;-142.21;52.40;112049.66;5070597;28;20262;-71
2022/06/03 10:47:03;;;;;;;3.30;2.50;;;30.50;46.40;;;-142.21;48.52;112049.66;5069613;28;20208;-71
2022/06/03 10:49:36;;;;;;;4.23;2.40;;;30.70;45.40;;;-142.21;45.18;112049.66;5071191;28;20228;-72
2022/06/03 11:03:29;;;;;;;3.90;2.70;;;31.10;44.40;;;-142.21;43.55;112049.66;5069671;28;20661;-72
2022/06/03 11:05:57;;;;;;;2.80;2.40;;;30.90;42.90;;;-142.21;44.29;112049.66;5071239;28;20244;-72
2022/06/03 11:08:25;;;;;;;4.47;2.50;;;30.80;43.60;;;-142.21;46.61;112049.66;5070508;28;20204;-72
2022/06/03 11:10:55;;;;;;;2.67;2.47;;;30.70;44.10;;;-142.21;46.84;112049.66;5105129;28;20658;-71
2022/06/03 11:13:31;;;;;;;2.97;2.63;;;30.70;44.50;;;-142.21;47.27;112049.66;5110871;28;20203;-73
2022/06/03 11:16:15;;;;;;;3.13;2.50;;;30.60;44.60;;;-142.21;46.92;112049.66;5097415;28;20271;-72
2022/06/03 11:18:43;;;;;;;2.90;2.30;;;30.60;44.50;;;-142.21;45.70;112049.66;5111201;28;20200;-70
2022/06/03 11:21:25;;;;;;;3.03;2.50;;;30.50;44.00;;;-142.21;45.59;112049.66;5110694;28;20250;-71
2022/06/03 11:23:54;;;;;;;2.73;2.50;;;30.50;43.80;;;-142.21;46.91;112049.66;5111300;28;20194;-71
2022/06/03 11:26:25;;;;;;;2.97;2.73;;;30.50;44.30;;;-142.21;46.92;112049.66;5113963;28;20223;-71
2022/06/03 11:29:02;;;;;;;2.77;2.57;;;30.50;44.30;;;-142.21;47.25;112049.66;5114977;28;20303;-72
2022/06/03 11:31:35;;;;;;;3.43;3.13;;;30.50;44.40;;;-142.21;47.85;112049.66;5114432;28;20187;-72
2022/06/03 11:34:09;;;;;;;3.50;2.57;;;30.50;44.70;;;-142.21;48.27;112049.66;5115074;28;20188;-71
2022/06/03 11:36:42;;;;;;;2.60;2.40;;;30.50;44.90;;;-142.21;47.54;112049.66;5115118;28;20248;-71
2022/06/03 11:39:24;;;;;;;2.80;2.50;;;30.50;44.60;;;-142.21;46.80;112049.66;5113735;28;20235;-71
2022/06/03 11:41:59;;;;;;;2.90;2.50;;;30.50;44.40;;;-142.21;48.64;112049.66;5114321;28;20704;-72
2022/06/03 11:44:37;;;;;;;3.03;2.63;;;30.60;45.00;;;-142.21;47.76;112049.66;5114010;28;20276;-71
2022/06/03 11:47:12;;;;;;;2.53;2.33;;;30.70;44.80;;;-142.21;48.65;112049.66;5114402;28;20667;-72
2022/06/03 11:49:40;;;;;;;2.53;2.27;;;30.70;45.10;;;-142.21;49.61;112049.66;5114559;28;20318;-72
2022/06/03 11:52:08;;;;;;;2.63;2.43;;;30.70;45.30;;;-142.21;48.88;112049.66;5114218;28;20302;-71
2022/06/03 11:54:37;;;;;;;3.10;2.80;;;30.80;45.20;;;-142.21;48.33;112049.66;5114482;28;20656;-72
2022/06/03 11:57:07;;;;;;;3.20;2.90;;;30.80;45.00;;;-142.21;48.00;112049.66;5114342;28;20195;-72
2022/06/03 11:59:44;;;;;;;2.70;2.37;;;30.80;44.90;;;-142.21;48.26;112049.66;5114231;28;20688;-73
2022/06/03 12:02:21;;;;;;;2.80;2.60;;;30.90;45.00;;;-142.21;46.77;112049.66;5113950;28;20240;-71
2022/06/03 12:04:56;;;;;;;3.67;3.00;;;30.90;44.50;;;-142.21;45.12;112049.66;5114143;28;20292;-71